sensor_id;sensor_type;location;lat;lon;timestamp;P1;durP1;ratioP1;P2;durP2;ratioP2
40284;SDS011;25997;50.214;19.354;2023-11-22T00:02:36;12.43;;;8.95;;
40284;SDS011;25997;50.214;19.354;2023-11-22T00:05:39;23.33;;;17.27;;
40284;SDS011;25997;50.214;19.354;2023-11-22T00:08:43;11.70;;;8.68;;
40284;SDS011;25997;50.214;19.354;2023-11-22T00:11:46;11.98;;;9.45;;
40284;SDS011;25997;50.214;19.354;2023-11-22T00:14:48;13.60;;;9.15;;
40284;SDS011;25997;50.214;19.354;2023-11-22T00:17:52;10.95;;;9.27;;
40284;SDS011;25997;50.214;19.354;2023-11-22T00:20:54;9.85;;;8.52;;
40284;SDS011;25997;50.214;19.354;2023-11-22T00:23:59;10.68;;;8.52;;
40284;SDS011;25997;50.214;19.354;2023-11-22T00:27:02;10.27;;;9.02;;
40284;SDS011;25997;50.214;19.354;2023-11-22T00:30:05;11.23;;;8.85;;
40284;SDS011;25997;50.214;19.354;2023-11-22T00:33:10;11.55;;;9.20;;
40284;SDS011;25997;50.214;19.354;2023-11-22T00:36:12;10.18;;;8.50;;
40284;SDS011;25997;50.214;19.354;2023-11-22T00:39:18;12.55;;;9.02;;
40284;SDS011;25997;50.214;19.354;2023-11-22T00:42:21;10.38;;;9.07;;
40284;SDS011;25997;50.214;19.354;2023-11-22T00:45:24;13.27;;;10.02;;
40284;SDS011;25997;50.214;19.354;2023-11-22T00:48:26;12.05;;;8.85;;
40284;SDS011;25997;50.214;19.354;2023-11-22T00:51:29;13.23;;;9.63;;
40284;SDS011;25997;50.214;19.354;2023-11-22T00:54:34;13.25;;;9.68;;
40284;SDS011;25997;50.214;19.354;2023-11-22T00:57:36;12.55;;;9.75;;
40284;SDS011;25997;50.214;19.354;2023-11-22T01:00:39;13.07;;;9.77;;
40284;SDS011;25997;50.214;19.354;2023-11-22T01:03:41;11.25;;;8.70;;
40284;SDS011;25997;50.214;19.354;2023-11-22T01:06:44;13.55;;;10.20;;
40284;SDS011;25997;50.214;19.354;2023-11-22T01:09:48;10.43;;;9.15;;
40284;SDS011;25997;50.214;19.354;2023-11-22T01:12:51;12.25;;;9.70;;
40284;SDS011;25997;50.214;19.354;2023-11-22T01:15:53;11.95;;;9.77;;
40284;SDS011;25997;50.214;19.354;2023-11-22T01:18:56;14.15;;;10.15;;
40284;SDS011;25997;50.214;19.354;2023-11-22T01:21:59;11.10;;;8.77;;
40284;SDS011;25997;50.214;19.354;2023-11-22T01:25:03;11.80;;;9.00;;
40284;SDS011;25997;50.214;19.354;2023-11-22T01:28:06;12.77;;;10.50;;
40284;SDS011;25997;50.214;19.354;2023-11-22T01:31:12;12.27;;;10.05;;
40284;SDS011;25997;50.214;19.354;2023-11-22T01:34:15;14.60;;;10.32;;
40284;SDS011;25997;50.214;19.354;2023-11-22T01:37:18;15.75;;;10.13;;
40284;SDS011;25997;50.214;19.354;2023-11-22T01:40:22;12.50;;;10.55;;
40284;SDS011;25997;50.214;19.354;2023-11-22T01:43:26;12.95;;;10.57;;
40284;SDS011;25997;50.214;19.354;2023-11-22T01:46:29;12.93;;;9.77;;
40284;SDS011;25997;50.214;19.354;2023-11-22T01:49:35;14.50;;;11.10;;
40284;SDS011;25997;50.214;19.354;2023-11-22T01:52:38;12.68;;;9.88;;
40284;SDS011;25997;50.214;19.354;2023-11-22T01:55:43;15.65;;;11.25;;
40284;SDS011;25997;50.214;19.354;2023-11-22T01:58:46;15.85;;;12.05;;
40284;SDS011;25997;50.214;19.354;2023-11-22T02:01:51;12.85;;;10.85;;
40284;SDS011;25997;50.214;19.354;2023-11-22T02:04:55;15.63;;;12.18;;
40284;SDS011;25997;50.214;19.354;2023-11-22T02:07:57;14.07;;;10.93;;
40284;SDS011;25997;50.214;19.354;2023-11-22T02:11:01;14.63;;;10.45;;
40284;SDS011;25997;50.214;19.354;2023-11-22T02:14:04;15.40;;;11.57;;
40284;SDS011;25997;50.214;19.354;2023-11-22T02:17:07;16.00;;;12.25;;
40284;SDS011;25997;50.214;19.354;2023-11-22T02:20:10;15.13;;;12.32;;
40284;SDS011;25997;50.214;19.354;2023-11-22T02:23:15;14.05;;;11.05;;
40284;SDS011;25997;50.214;19.354;2023-11-22T02:26:18;16.00;;;11.63;;
40284;SDS011;25997;50.214;19.354;2023-11-22T02:29:21;16.73;;;12.00;;
40284;SDS011;25997;50.214;19.354;2023-11-22T02:32:24;14.63;;;11.38;;
40284;SDS011;25997;50.214;19.354;2023-11-22T02:35:28;15.95;;;11.55;;
40284;SDS011;25997;50.214;19.354;2023-11-22T02:38:34;15.45;;;11.23;;
40284;SDS011;25997;50.214;19.354;2023-11-22T02:41:36;17.25;;;12.55;;
40284;SDS011;25997;50.214;19.354;2023-11-22T02:44:39;17.38;;;12.52;;
40284;SDS011;25997;50.214;19.354;2023-11-22T02:47:42;16.73;;;12.82;;
40284;SDS011;25997;50.214;19.354;2023-11-22T02:50:47;17.55;;;14.05;;
40284;SDS011;25997;50.214;19.354;2023-11-22T02:53:53;20.25;;;13.55;;
40284;SDS011;25997;50.214;19.354;2023-11-22T02:56:55;19.40;;;14.02;;
40284;SDS011;25997;50.214;19.354;2023-11-22T02:59:58;21.30;;;14.10;;
40284;SDS011;25997;50.214;19.354;2023-11-22T03:03:01;23.83;;;15.90;;
40284;SDS011;25997;50.214;19.354;2023-11-22T03:06:05;20.35;;;14.60;;
40284;SDS011;25997;50.214;19.354;2023-11-22T03:09:09;24.23;;;16.77;;
40284;SDS011;25997;50.214;19.354;2023-11-22T03:12:15;21.80;;;15.07;;
40284;SDS011;25997;50.214;19.354;2023-11-22T03:15:19;23.67;;;15.55;;
40284;SDS011;25997;50.214;19.354;2023-11-22T03:18:21;21.73;;;15.38;;
40284;SDS011;25997;50.214;19.354;2023-11-22T03:21:24;17.75;;;14.07;;
40284;SDS011;25997;50.214;19.354;2023-11-22T03:24:29;19.48;;;14.35;;
40284;SDS011;25997;50.214;19.354;2023-11-22T03:27:33;16.10;;;12.38;;
40284;SDS011;25997;50.214;19.354;2023-11-22T03:30:35;17.15;;;13.65;;
40284;SDS011;25997;50.214;19.354;2023-11-22T03:33:38;16.70;;;13.40;;
40284;SDS011;25997;50.214;19.354;2023-11-22T03:36:40;17.17;;;13.45;;
40284;SDS011;25997;50.214;19.354;2023-11-22T03:39:44;16.70;;;12.43;;
40284;SDS011;25997;50.214;19.354;2023-11-22T03:42:49;14.77;;;11.70;;
40284;SDS011;25997;50.214;19.354;2023-11-22T03:45:51;17.30;;;12.48;;
40284;SDS011;25997;50.214;19.354;2023-11-22T03:48:54;15.90;;;12.65;;
40284;SDS011;25997;50.214;19.354;2023-11-22T03:51:56;13.88;;;11.27;;
40284;SDS011;25997;50.214;19.354;2023-11-22T03:55:00;16.27;;;12.18;;
40284;SDS011;25997;50.214;19.354;2023-11-22T03:58:04;16.45;;;12.32;;
40284;SDS011;25997;50.214;19.354;2023-11-22T04:01:06;14.35;;;11.63;;
40284;SDS011;25997;50.214;19.354;2023-11-22T04:04:09;20.13;;;13.38;;
40284;SDS011;25997;50.214;19.354;2023-11-22T04:07:11;14.25;;;11.25;;
40284;SDS011;25997;50.214;19.354;2023-11-22T04:10:15;16.20;;;12.02;;
40284;SDS011;25997;50.214;19.354;2023-11-22T04:13:19;17.30;;;12.23;;
40284;SDS011;25997;50.214;19.354;2023-11-22T04:16:23;17.80;;;13.20;;
40284;SDS011;25997;50.214;19.354;2023-11-22T04:19:26;16.85;;;12.85;;
40284;SDS011;25997;50.214;19.354;2023-11-22T04:22:28;17.40;;;12.65;;
40284;SDS011;25997;50.214;19.354;2023-11-22T04:25:32;19.30;;;12.80;;
40284;SDS011;25997;50.214;19.354;2023-11-22T04:28:36;16.33;;;12.75;;
40284;SDS011;25997;50.214;19.354;2023-11-22T04:31:38;19.60;;;13.57;;
40284;SDS011;25997;50.214;19.354;2023-11-22T04:34:41;19.88;;;14.20;;
40284;SDS011;25997;50.214;19.354;2023-11-22T04:37:43;19.30;;;13.90;;
40284;SDS011;25997;50.214;19.354;2023-11-22T04:40:49;17.25;;;13.35;;
40284;SDS011;25997;50.214;19.354;2023-11-22T04:43:51;15.77;;;12.50;;
40284;SDS011;25997;50.214;19.354;2023-11-22T04:46:54;16.33;;;12.55;;
40284;SDS011;25997;50.214;19.354;2023-11-22T04:49:56;19.25;;;14.38;;
40284;SDS011;25997;50.214;19.354;2023-11-22T04:52:59;17.02;;;12.43;;
40284;SDS011;25997;50.214;19.354;2023-11-22T04:56:05;18.60;;;13.68;;
40284;SDS011;25997;50.214;19.354;2023-11-22T04:59:08;18.52;;;13.50;;
40284;SDS011;25997;50.214;19.354;2023-11-22T05:02:11;19.17;;;13.57;;
40284;SDS011;25997;50.214;19.354;2023-11-22T05:05:13;20.50;;;13.35;;
40284;SDS011;25997;50.214;19.354;2023-11-22T05:08:17;21.50;;;13.65;;
40284;SDS011;25997;50.214;19.354;2023-11-22T05:11:21;17.73;;;13.30;;
40284;SDS011;25997;50.214;19.354;2023-11-22T05:14:23;19.00;;;13.07;;
40284;SDS011;25997;50.214;19.354;2023-11-22T05:17:27;19.13;;;12.82;;
40284;SDS011;25997;50.214;19.354;2023-11-22T05:20:30;16.60;;;11.85;;
40284;SDS011;25997;50.214;19.354;2023-11-22T05:23:33;17.20;;;12.88;;
40284;SDS011;25997;50.214;19.354;2023-11-22T05:26:39;14.90;;;11.35;;
40284;SDS011;25997;50.214;19.354;2023-11-22T05:29:42;22.25;;;11.98;;
40284;SDS011;25997;50.214;19.354;2023-11-22T05:32:45;16.92;;;11.38;;
40284;SDS011;25997;50.214;19.354;2023-11-22T05:35:47;15.55;;;11.55;;
40284;SDS011;25997;50.214;19.354;2023-11-22T05:38:50;16.67;;;12.50;;
40284;SDS011;25997;50.214;19.354;2023-11-22T05:41:54;14.85;;;11.43;;
40284;SDS011;25997;50.214;19.354;2023-11-22T05:44:57;15.13;;;11.32;;
40284;SDS011;25997;50.214;19.354;2023-11-22T05:47:59;15.50;;;11.52;;
40284;SDS011;25997;50.214;19.354;2023-11-22T05:51:02;15.13;;;10.93;;
40284;SDS011;25997;50.214;19.354;2023-11-22T05:54:06;14.88;;;10.30;;
40284;SDS011;25997;50.214;19.354;2023-11-22T05:57:11;15.02;;;10.52;;
40284;SDS011;25997;50.214;19.354;2023-11-22T06:00:14;14.57;;;10.32;;
40284;SDS011;25997;50.214;19.354;2023-11-22T06:03:17;13.93;;;11.13;;
40284;SDS011;25997;50.214;19.354;2023-11-22T06:06:19;14.27;;;10.52;;
40284;SDS011;25997;50.214;19.354;2023-11-22T06:09:22;14.07;;;10.88;;
40284;SDS011;25997;50.214;19.354;2023-11-22T06:12:26;17.17;;;10.50;;
40284;SDS011;25997;50.214;19.354;2023-11-22T06:15:29;14.55;;;10.95;;
40284;SDS011;25997;50.214;19.354;2023-11-22T06:18:32;14.52;;;10.38;;
40284;SDS011;25997;50.214;19.354;2023-11-22T06:21:36;11.35;;;9.30;;
40284;SDS011;25997;50.214;19.354;2023-11-22T06:24:39;15.32;;;11.52;;
40284;SDS011;25997;50.214;19.354;2023-11-22T06:27:43;15.30;;;10.25;;
40284;SDS011;25997;50.214;19.354;2023-11-22T06:30:46;15.05;;;10.95;;
40284;SDS011;25997;50.214;19.354;2023-11-22T06:33:48;12.68;;;8.95;;
40284;SDS011;25997;50.214;19.354;2023-11-22T06:36:52;15.60;;;9.98;;
40284;SDS011;25997;50.214;19.354;2023-11-22T06:39:55;10.43;;;9.10;;
40284;SDS011;25997;50.214;19.354;2023-11-22T06:42:59;15.77;;;11.45;;
40284;SDS011;25997;50.214;19.354;2023-11-22T06:46:05;12.35;;;9.75;;
40284;SDS011;25997;50.214;19.354;2023-11-22T06:49:07;13.02;;;9.73;;
40284;SDS011;25997;50.214;19.354;2023-11-22T06:52:10;18.60;;;13.65;;
40284;SDS011;25997;50.214;19.354;2023-11-22T06:55:13;10.38;;;9.07;;
40284;SDS011;25997;50.214;19.354;2023-11-22T06:58:17;12.85;;;9.18;;
40284;SDS011;25997;50.214;19.354;2023-11-22T07:01:22;14.38;;;9.63;;
40284;SDS011;25997;50.214;19.354;2023-11-22T07:04:26;17.98;;;11.35;;
40284;SDS011;25997;50.214;19.354;2023-11-22T07:07:29;13.15;;;9.75;;
40284;SDS011;25997;50.214;19.354;2023-11-22T07:10:32;13.73;;;10.30;;
40284;SDS011;25997;50.214;19.354;2023-11-22T07:13:36;15.00;;;11.50;;
40284;SDS011;25997;50.214;19.354;2023-11-22T07:16:40;15.00;;;12.27;;
40284;SDS011;25997;50.214;19.354;2023-11-22T07:19:42;23.80;;;18.05;;
40284;SDS011;25997;50.214;19.354;2023-11-22T07:22:47;18.75;;;14.70;;
40284;SDS011;25997;50.214;19.354;2023-11-22T07:25:55;15.45;;;11.68;;
40284;SDS011;25997;50.214;19.354;2023-11-22T07:28:59;14.65;;;11.55;;
40284;SDS011;25997;50.214;19.354;2023-11-22T07:32:02;13.32;;;9.93;;
40284;SDS011;25997;50.214;19.354;2023-11-22T07:35:06;14.70;;;11.50;;
40284;SDS011;25997;50.214;19.354;2023-11-22T07:38:10;21.50;;;14.27;;
40284;SDS011;25997;50.214;19.354;2023-11-22T07:41:13;18.85;;;13.23;;
40284;SDS011;25997;50.214;19.354;2023-11-22T07:44:17;20.33;;;14.38;;
40284;SDS011;25997;50.214;19.354;2023-11-22T07:47:20;14.75;;;12.40;;
40284;SDS011;25997;50.214;19.354;2023-11-22T07:50:23;16.85;;;12.18;;
40284;SDS011;25997;50.214;19.354;2023-11-22T07:53:26;23.80;;;17.75;;
40284;SDS011;25997;50.214;19.354;2023-11-22T07:56:30;25.92;;;19.58;;
40284;SDS011;25997;50.214;19.354;2023-11-22T07:59:34;15.38;;;12.45;;
40284;SDS011;25997;50.214;19.354;2023-11-22T08:02:37;20.30;;;14.43;;
40284;SDS011;25997;50.214;19.354;2023-11-22T08:05:41;16.33;;;12.40;;
40284;SDS011;25997;50.214;19.354;2023-11-22T08:08:48;17.15;;;12.10;;
40284;SDS011;25997;50.214;19.354;2023-11-22T08:11:52;17.05;;;12.07;;
40284;SDS011;25997;50.214;19.354;2023-11-22T08:14:56;13.93;;;10.30;;
40284;SDS011;25997;50.214;19.354;2023-11-22T08:17:59;15.20;;;10.32;;
40284;SDS011;25997;50.214;19.354;2023-11-22T08:21:02;13.88;;;10.00;;
40284;SDS011;25997;50.214;19.354;2023-11-22T08:24:05;15.75;;;10.85;;
40284;SDS011;25997;50.214;19.354;2023-11-22T08:27:08;25.98;;;15.73;;
40284;SDS011;25997;50.214;19.354;2023-11-22T08:30:12;57.55;;;28.88;;
40284;SDS011;25997;50.214;19.354;2023-11-22T08:33:16;46.97;;;26.80;;
40284;SDS011;25997;50.214;19.354;2023-11-22T08:36:22;19.88;;;13.25;;
40284;SDS011;25997;50.214;19.354;2023-11-22T08:39:32;14.68;;;11.15;;
40284;SDS011;25997;50.214;19.354;2023-11-22T08:42:35;14.35;;;9.30;;
40284;SDS011;25997;50.214;19.354;2023-11-22T08:45:39;13.82;;;9.57;;
40284;SDS011;25997;50.214;19.354;2023-11-22T08:48:42;15.75;;;10.13;;
40284;SDS011;25997;50.214;19.354;2023-11-22T08:51:44;16.40;;;9.88;;
40284;SDS011;25997;50.214;19.354;2023-11-22T08:54:48;13.65;;;9.73;;
40284;SDS011;25997;50.214;19.354;2023-11-22T08:57:52;12.70;;;9.57;;
40284;SDS011;25997;50.214;19.354;2023-11-22T09:00:56;14.65;;;10.35;;
40284;SDS011;25997;50.214;19.354;2023-11-22T09:03:59;12.50;;;9.95;;
40284;SDS011;25997;50.214;19.354;2023-11-22T09:07:02;12.85;;;10.50;;
40284;SDS011;25997;50.214;19.354;2023-11-22T09:10:06;15.82;;;11.15;;
40284;SDS011;25997;50.214;19.354;2023-11-22T09:13:10;14.05;;;10.50;;
40284;SDS011;25997;50.214;19.354;2023-11-22T09:16:18;14.95;;;11.57;;
40284;SDS011;25997;50.214;19.354;2023-11-22T09:19:22;14.85;;;10.55;;
40284;SDS011;25997;50.214;19.354;2023-11-22T09:22:26;14.13;;;9.65;;
40284;SDS011;25997;50.214;19.354;2023-11-22T09:25:28;12.68;;;9.18;;
40284;SDS011;25997;50.214;19.354;2023-11-22T09:28:31;16.77;;;10.90;;
40284;SDS011;25997;50.214;19.354;2023-11-22T09:31:36;38.55;;;19.52;;
40284;SDS011;25997;50.214;19.354;2023-11-22T09:34:39;22.35;;;14.55;;
40284;SDS011;25997;50.214;19.354;2023-11-22T09:37:44;18.63;;;12.23;;
40284;SDS011;25997;50.214;19.354;2023-11-22T09:40:47;24.08;;;14.98;;
40284;SDS011;25997;50.214;19.354;2023-11-22T09:43:50;28.23;;;17.70;;
40284;SDS011;25997;50.214;19.354;2023-11-22T09:46:54;22.58;;;15.32;;
40284;SDS011;25997;50.214;19.354;2023-11-22T09:49:58;12.35;;;9.57;;
40284;SDS011;25997;50.214;19.354;2023-11-22T09:53:06;13.82;;;9.80;;
40284;SDS011;25997;50.214;19.354;2023-11-22T09:56:13;13.35;;;10.38;;
40284;SDS011;25997;50.214;19.354;2023-11-22T09:59:19;16.40;;;10.38;;
40284;SDS011;25997;50.214;19.354;2023-11-22T10:02:25;20.90;;;13.32;;
40284;SDS011;25997;50.214;19.354;2023-11-22T10:05:29;18.20;;;12.05;;
40284;SDS011;25997;50.214;19.354;2023-11-22T10:08:31;16.65;;;11.55;;
40284;SDS011;25997;50.214;19.354;2023-11-22T10:11:36;16.67;;;10.95;;
40284;SDS011;25997;50.214;19.354;2023-11-22T10:14:40;17.35;;;11.07;;
40284;SDS011;25997;50.214;19.354;2023-11-22T10:17:50;16.15;;;11.77;;
40284;SDS011;25997;50.214;19.354;2023-11-22T10:21:01;17.48;;;10.75;;
40284;SDS011;25997;50.214;19.354;2023-11-22T10:24:05;14.85;;;9.68;;
40284;SDS011;25997;50.214;19.354;2023-11-22T10:27:10;12.43;;;8.90;;
40284;SDS011;25997;50.214;19.354;2023-11-22T10:30:13;10.80;;;8.43;;
40284;SDS011;25997;50.214;19.354;2023-11-22T10:33:18;14.82;;;10.48;;
40284;SDS011;25997;50.214;19.354;2023-11-22T10:36:23;18.30;;;13.95;;
40284;SDS011;25997;50.214;19.354;2023-11-22T10:39:26;13.73;;;9.93;;
40284;SDS011;25997;50.214;19.354;2023-11-22T10:42:28;11.48;;;9.07;;
40284;SDS011;25997;50.214;19.354;2023-11-22T10:45:31;14.27;;;8.80;;
40284;SDS011;25997;50.214;19.354;2023-11-22T10:48:36;10.63;;;7.70;;
40284;SDS011;25997;50.214;19.354;2023-11-22T10:51:39;11.00;;;7.75;;
40284;SDS011;25997;50.214;19.354;2023-11-22T10:54:44;13.75;;;9.02;;
40284;SDS011;25997;50.214;19.354;2023-11-22T10:57:51;12.57;;;9.23;;
40284;SDS011;25997;50.214;19.354;2023-11-22T11:00:58;10.35;;;7.85;;
40284;SDS011;25997;50.214;19.354;2023-11-22T11:04:03;10.52;;;7.72;;
40284;SDS011;25997;50.214;19.354;2023-11-22T11:07:12;8.70;;;6.70;;
40284;SDS011;25997;50.214;19.354;2023-11-22T11:10:20;10.35;;;7.30;;
40284;SDS011;25997;50.214;19.354;2023-11-22T11:13:24;10.60;;;7.88;;
40284;SDS011;25997;50.214;19.354;2023-11-22T11:16:26;10.90;;;6.55;;
40284;SDS011;25997;50.214;19.354;2023-11-22T11:19:33;10.90;;;8.10;;
40284;SDS011;25997;50.214;19.354;2023-11-22T11:22:36;17.17;;;12.00;;
40284;SDS011;25997;50.214;19.354;2023-11-22T11:25:39;14.10;;;10.25;;
40284;SDS011;25997;50.214;19.354;2023-11-22T11:28:41;18.23;;;12.43;;
40284;SDS011;25997;50.214;19.354;2023-11-22T11:31:44;14.70;;;10.90;;
40284;SDS011;25997;50.214;19.354;2023-11-22T11:34:51;14.05;;;9.27;;
40284;SDS011;25997;50.214;19.354;2023-11-22T11:38:02;9.82;;;7.53;;
40284;SDS011;25997;50.214;19.354;2023-11-22T11:41:08;13.38;;;10.57;;
40284;SDS011;25997;50.214;19.354;2023-11-22T11:44:11;11.40;;;8.45;;
40284;SDS011;25997;50.214;19.354;2023-11-22T11:47:14;16.83;;;12.50;;
40284;SDS011;25997;50.214;19.354;2023-11-22T11:50:20;11.30;;;8.10;;
40284;SDS011;25997;50.214;19.354;2023-11-22T11:53:22;11.45;;;9.32;;
40284;SDS011;25997;50.214;19.354;2023-11-22T11:56:25;19.23;;;12.10;;
40284;SDS011;25997;50.214;19.354;2023-11-22T11:59:29;10.63;;;7.90;;
40284;SDS011;25997;50.214;19.354;2023-11-22T12:02:32;9.40;;;6.30;;
40284;SDS011;25997;50.214;19.354;2023-11-22T12:05:37;7.65;;;5.78;;
40284;SDS011;25997;50.214;19.354;2023-11-22T12:08:39;13.52;;;8.90;;
40284;SDS011;25997;50.214;19.354;2023-11-22T12:11:42;13.75;;;9.07;;
40284;SDS011;25997;50.214;19.354;2023-11-22T12:14:47;14.65;;;9.80;;
40284;SDS011;25997;50.214;19.354;2023-11-22T12:17:50;8.50;;;6.63;;
40284;SDS011;25997;50.214;19.354;2023-11-22T12:20:56;8.48;;;6.97;;
40284;SDS011;25997;50.214;19.354;2023-11-22T12:23:59;9.18;;;6.18;;
40284;SDS011;25997;50.214;19.354;2023-11-22T12:27:03;9.02;;;5.88;;
40284;SDS011;25997;50.214;19.354;2023-11-22T12:30:22;8.60;;;6.93;;
40284;SDS011;25997;50.214;19.354;2023-11-22T12:33:31;11.15;;;7.25;;
40284;SDS011;25997;50.214;19.354;2023-11-22T12:36:35;10.88;;;6.65;;
40284;SDS011;25997;50.214;19.354;2023-11-22T12:39:38;10.65;;;7.32;;
40284;SDS011;25997;50.214;19.354;2023-11-22T12:42:46;9.43;;;7.22;;
40284;SDS011;25997;50.214;19.354;2023-11-22T12:45:57;12.00;;;7.45;;
40284;SDS011;25997;50.214;19.354;2023-11-22T12:49:04;9.93;;;7.07;;
40284;SDS011;25997;50.214;19.354;2023-11-22T12:52:09;9.60;;;7.25;;
40284;SDS011;25997;50.214;19.354;2023-11-22T12:55:11;16.40;;;8.88;;
40284;SDS011;25997;50.214;19.354;2023-11-22T12:58:14;10.95;;;8.02;;
40284;SDS011;25997;50.214;19.354;2023-11-22T13:01:17;10.90;;;6.63;;
40284;SDS011;25997;50.214;19.354;2023-11-22T13:04:21;11.02;;;7.25;;
40284;SDS011;25997;50.214;19.354;2023-11-22T13:07:25;11.55;;;7.82;;
40284;SDS011;25997;50.214;19.354;2023-11-22T13:10:27;13.05;;;9.10;;
40284;SDS011;25997;50.214;19.354;2023-11-22T13:13:30;10.23;;;6.95;;
40284;SDS011;25997;50.214;19.354;2023-11-22T13:16:32;15.73;;;9.02;;
40284;SDS011;25997;50.214;19.354;2023-11-22T13:19:35;14.73;;;8.25;;
40284;SDS011;25997;50.214;19.354;2023-11-22T13:22:42;13.90;;;8.75;;
40284;SDS011;25997;50.214;19.354;2023-11-22T13:25:45;12.40;;;8.65;;
40284;SDS011;25997;50.214;19.354;2023-11-22T13:28:48;14.15;;;8.68;;
40284;SDS011;25997;50.214;19.354;2023-11-22T13:31:50;13.98;;;10.40;;
40284;SDS011;25997;50.214;19.354;2023-11-22T13:34:53;13.02;;;9.60;;
40284;SDS011;25997;50.214;19.354;2023-11-22T13:37:58;13.15;;;9.05;;
40284;SDS011;25997;50.214;19.354;2023-11-22T13:41:02;15.85;;;10.77;;
40284;SDS011;25997;50.214;19.354;2023-11-22T13:44:05;14.23;;;9.93;;
40284;SDS011;25997;50.214;19.354;2023-11-22T13:47:08;15.07;;;10.30;;
40284;SDS011;25997;50.214;19.354;2023-11-22T13:50:11;13.60;;;9.63;;
40284;SDS011;25997;50.214;19.354;2023-11-22T13:53:16;14.40;;;9.48;;
40284;SDS011;25997;50.214;19.354;2023-11-22T13:56:22;12.45;;;9.30;;
40284;SDS011;25997;50.214;19.354;2023-11-22T13:59:25;14.55;;;9.77;;
40284;SDS011;25997;50.214;19.354;2023-11-22T14:02:28;17.55;;;11.07;;
40284;SDS011;25997;50.214;19.354;2023-11-22T14:05:32;22.20;;;13.45;;
40284;SDS011;25997;50.214;19.354;2023-11-22T14:08:38;26.48;;;16.02;;
40284;SDS011;25997;50.214;19.354;2023-11-22T14:11:41;16.98;;;12.10;;
40284;SDS011;25997;50.214;19.354;2023-11-22T14:14:43;14.43;;;10.07;;
40284;SDS011;25997;50.214;19.354;2023-11-22T14:17:46;14.60;;;9.85;;
40284;SDS011;25997;50.214;19.354;2023-11-22T14:20:52;17.13;;;10.85;;
40284;SDS011;25997;50.214;19.354;2023-11-22T14:23:56;19.58;;;12.40;;
40284;SDS011;25997;50.214;19.354;2023-11-22T14:26:59;21.48;;;11.95;;
40284;SDS011;25997;50.214;19.354;2023-11-22T14:30:01;26.55;;;14.23;;
40284;SDS011;25997;50.214;19.354;2023-11-22T14:33:07;24.02;;;13.68;;
40284;SDS011;25997;50.214;19.354;2023-11-22T14:36:10;23.20;;;13.35;;
40284;SDS011;25997;50.214;19.354;2023-11-22T14:39:14;25.98;;;14.15;;
40284;SDS011;25997;50.214;19.354;2023-11-22T14:42:17;23.83;;;13.00;;
40284;SDS011;25997;50.214;19.354;2023-11-22T14:45:20;30.80;;;14.98;;
40284;SDS011;25997;50.214;19.354;2023-11-22T14:48:22;18.98;;;12.23;;
40284;SDS011;25997;50.214;19.354;2023-11-22T14:51:25;15.90;;;10.73;;
40284;SDS011;25997;50.214;19.354;2023-11-22T14:54:28;23.45;;;13.73;;
40284;SDS011;25997;50.214;19.354;2023-11-22T14:57:31;25.60;;;14.20;;
40284;SDS011;25997;50.214;19.354;2023-11-22T15:00:34;40.92;;;19.67;;
40284;SDS011;25997;50.214;19.354;2023-11-22T15:03:37;43.97;;;23.70;;
40284;SDS011;25997;50.214;19.354;2023-11-22T15:06:40;37.97;;;22.27;;
40284;SDS011;25997;50.214;19.354;2023-11-22T15:09:46;32.45;;;21.88;;
40284;SDS011;25997;50.214;19.354;2023-11-22T15:12:48;32.45;;;23.67;;
40284;SDS011;25997;50.214;19.354;2023-11-22T15:15:51;20.95;;;15.32;;
40284;SDS011;25997;50.214;19.354;2023-11-22T15:18:53;22.70;;;15.48;;
40284;SDS011;25997;50.214;19.354;2023-11-22T15:21:56;20.65;;;15.52;;
40284;SDS011;25997;50.214;19.354;2023-11-22T15:25:00;20.38;;;14.90;;
40284;SDS011;25997;50.214;19.354;2023-11-22T15:28:03;20.25;;;13.98;;
40284;SDS011;25997;50.214;19.354;2023-11-22T15:31:05;25.38;;;15.10;;
40284;SDS011;25997;50.214;19.354;2023-11-22T15:34:08;19.90;;;14.73;;
40284;SDS011;25997;50.214;19.354;2023-11-22T15:37:10;21.05;;;13.88;;
40284;SDS011;25997;50.214;19.354;2023-11-22T15:40:14;19.52;;;14.40;;
40284;SDS011;25997;50.214;19.354;2023-11-22T15:43:17;18.92;;;13.20;;
40284;SDS011;25997;50.214;19.354;2023-11-22T15:46:20;23.35;;;13.18;;
40284;SDS011;25997;50.214;19.354;2023-11-22T15:49:25;21.35;;;15.25;;
40284;SDS011;25997;50.214;19.354;2023-11-22T15:52:27;20.58;;;14.35;;
40284;SDS011;25997;50.214;19.354;2023-11-22T15:55:31;21.65;;;13.32;;
40284;SDS011;25997;50.214;19.354;2023-11-22T15:58:33;26.15;;;15.02;;
40284;SDS011;25997;50.214;19.354;2023-11-22T16:01:37;22.13;;;15.07;;
40284;SDS011;25997;50.214;19.354;2023-11-22T16:04:40;29.33;;;18.95;;
40284;SDS011;25997;50.214;19.354;2023-11-22T16:07:43;37.53;;;22.20;;
40284;SDS011;25997;50.214;19.354;2023-11-22T16:10:46;29.63;;;18.40;;
40284;SDS011;25997;50.214;19.354;2023-11-22T16:13:49;28.23;;;18.20;;
40284;SDS011;25997;50.214;19.354;2023-11-22T16:16:51;19.42;;;13.13;;
40284;SDS011;25997;50.214;19.354;2023-11-22T16:19:53;20.08;;;13.75;;
40284;SDS011;25997;50.214;19.354;2023-11-22T16:23:01;16.58;;;11.10;;
40284;SDS011;25997;50.214;19.354;2023-11-22T16:26:05;17.20;;;12.65;;
40284;SDS011;25997;50.214;19.354;2023-11-22T16:29:08;21.65;;;13.95;;
40284;SDS011;25997;50.214;19.354;2023-11-22T16:32:10;21.27;;;12.65;;
40284;SDS011;25997;50.214;19.354;2023-11-22T16:35:13;16.02;;;9.95;;
40284;SDS011;25997;50.214;19.354;2023-11-22T16:38:15;11.48;;;7.90;;
40284;SDS011;25997;50.214;19.354;2023-11-22T16:41:19;15.02;;;9.15;;
40284;SDS011;25997;50.214;19.354;2023-11-22T16:44:24;13.75;;;8.65;;
40284;SDS011;25997;50.214;19.354;2023-11-22T16:47:28;19.00;;;12.05;;
40284;SDS011;25997;50.214;19.354;2023-11-22T16:50:33;23.50;;;14.73;;
40284;SDS011;25997;50.214;19.354;2023-11-22T16:53:35;22.65;;;14.77;;
40284;SDS011;25997;50.214;19.354;2023-11-22T16:56:42;24.77;;;15.25;;
40284;SDS011;25997;50.214;19.354;2023-11-22T16:59:45;36.78;;;22.55;;
40284;SDS011;25997;50.214;19.354;2023-11-22T17:02:48;40.75;;;24.48;;
40284;SDS011;25997;50.214;19.354;2023-11-22T17:05:51;43.92;;;23.58;;
40284;SDS011;25997;50.214;19.354;2023-11-22T17:08:54;30.77;;;19.02;;
40284;SDS011;25997;50.214;19.354;2023-11-22T17:11:58;41.00;;;22.80;;
40284;SDS011;25997;50.214;19.354;2023-11-22T17:15:00;27.67;;;17.95;;
40284;SDS011;25997;50.214;19.354;2023-11-22T17:18:05;43.40;;;29.30;;
40284;SDS011;25997;50.214;19.354;2023-11-22T17:21:07;39.03;;;25.90;;
40284;SDS011;25997;50.214;19.354;2023-11-22T17:24:12;30.98;;;22.25;;
40284;SDS011;25997;50.214;19.354;2023-11-22T17:27:16;23.80;;;16.90;;
40284;SDS011;25997;50.214;19.354;2023-11-22T17:30:19;19.88;;;12.32;;
40284;SDS011;25997;50.214;19.354;2023-11-22T17:33:21;19.77;;;12.52;;
40284;SDS011;25997;50.214;19.354;2023-11-22T17:36:26;38.60;;;20.40;;
40284;SDS011;25997;50.214;19.354;2023-11-22T17:39:28;26.80;;;14.68;;
40284;SDS011;25997;50.214;19.354;2023-11-22T17:42:32;29.10;;;16.63;;
40284;SDS011;25997;50.214;19.354;2023-11-22T17:45:35;37.85;;;19.48;;